F/V Men Gwen — FGPU — position and weather

sailwx.info

Track history (hours):
 
Tides and Currents Weather Stations Pressure Air Temp Water Temp Dewpoint Dewpoint Depression Visibility Wind Speed Wind Dir Waves Ship Positions

F/V Men Gwen

Last reported at 2018-Jun-22 01:50 UTC. Time now 2018-Jun-23 00:47 UTC.
Position N 47°44' W 003°22'.

Length 18 m.

Type: Fishing. MMSI: 227481000.

Date/timePositionNaut miles runAvg speedWind from/ knotsBaromVisibWave heightAir tempDewpointWater temp
2018-Jun-22 01:50N 47°44' W 003°22'0 0.0
2018-Jun-22 01:30N 47°44' W 003°22'0 0.0
2018-Jun-22 01:00N 47°44' W 003°22'0 0.2
2018-Jun-22 00:30N 47°44' W 003°22'2 4.8
2018-Jun-22 00:00N 47°41' W 003°22'4 8.9
2018-Jun-21 23:30N 47°37' W 003°23'4 8.1
2018-Jun-21 23:00N 47°33' W 003°26'5 9.0
2018-Jun-21 22:30N 47°30' W 003°30'4 8.6
2018-Jun-21 22:00N 47°27' W 003°35'4 7.3
2018-Jun-21 21:30N 47°24' W 003°39'1 1.5
2018-Jun-21 21:00N 47°24' W 003°39'2 3.6
2018-Jun-21 20:29N 47°24' W 003°42'3 3.8
2018-Jun-21 19:44N 47°26' W 003°45'1 3.6
2018-Jun-21 19:30N 47°26' W 003°46'5 0.5
2018-Jun-21 09:22N 47°24' W 003°54'1 3.5
2018-Jun-21 08:58N 47°23' W 003°54'3 1.9
2018-Jun-21 07:26N 47°26' W 003°55'1 0.7
2018-Jun-21 06:37N 47°26' W 003°54'1 3.7
2018-Jun-21 06:23N 47°26' W 003°55'1 3.3
2018-Jun-21 05:59N 47°25' W 003°56'2 3.7
2018-Jun-21 05:20N 47°23' W 003°56'1 3.1
2018-Jun-21 04:59N 47°23' W 003°54'2 3.7
2018-Jun-21 04:28N 47°25' W 003°54'3 3.7
2018-Jun-21 03:37N 47°27' W 003°51'2 3.4
2018-Jun-21 03:08N 47°29' W 003°52'1 3.8
2018-Jun-21 02:53N 47°28' W 003°53'2 3.2
2018-Jun-21 02:15N 47°27' W 003°56'2 3.7
2018-Jun-21 01:49N 47°27' W 003°58'2 3.7
2018-Jun-21 01:12N 47°26' W 004°01'1 3.8
2018-Jun-21 00:59N 47°26' W 004°03'2 4.0
2018-Jun-21 00:30N 47°27' W 004°05'3 3.9
2018-Jun-20 23:49N 47°27' W 004°09'4 3.3
2018-Jun-20 22:35N 47°30' W 004°04'0 3.6
2018-Jun-20 22:30N 47°30' W 004°04'3 3.6
2018-Jun-20 21:37N 47°30' W 003°59'0 1.8
2018-Jun-20 21:27N 47°30' W 003°59'2 3.6
2018-Jun-20 20:56N 47°30' W 003°56'2 3.6
2018-Jun-20 20:29N 47°30' W 003°54'2 3.1
2018-Jun-20 19:57N 47°29' W 003°51'2 4.0
2018-Jun-20 19:30N 47°28' W 003°53'2 3.8
2018-Jun-20 19:00N 47°26' W 003°54'2 3.3
2018-Jun-20 18:17N 47°24' W 003°56'1 3.6
2018-Jun-20 18:00N 47°23' W 003°55'2 0.9
2018-Jun-20 15:54N 47°25' W 003°56'2 3.9
2018-Jun-20 15:30N 47°24' W 003°54'2 3.9
2018-Jun-20 14:59N 47°22' W 003°53'2 3.8
2018-Jun-20 14:28N 47°22' W 003°56'2 3.1
2018-Jun-20 13:59N 47°24' W 003°56'2 3.3
2018-Jun-20 13:26N 47°22' W 003°55'2 3.6
2018-Jun-20 12:57N 47°21' W 003°56'4 1.6
2018-Jun-20 10:33N 47°24' W 003°53'0 1.4
2018-Jun-20 10:25N 47°24' W 003°53'2 3.1
2018-Jun-20 09:53N 47°22' W 003°53'1 3.6
2018-Jun-20 09:30N 47°23' W 003°55'2 3.8
2018-Jun-20 08:57N 47°25' W 003°57'2 3.6
2018-Jun-20 08:30N 47°25' W 003°54'2 3.6
2018-Jun-20 08:00N 47°23' W 003°54'2 1.3
2018-Jun-20 06:45N 47°25' W 003°55'2 3.6
2018-Jun-20 06:11N 47°23' W 003°53'1 4.1
2018-Jun-20 06:00N 47°23' W 003°53'2 3.2
2018-Jun-20 05:27N 47°23' W 003°55'2 3.5
2018-Jun-20 04:50N 47°25' W 003°56'2 3.7
2018-Jun-20 04:12N 47°27' W 003°53'1 3.8
2018-Jun-20 03:58N 47°27' W 003°52'2 4.7
2018-Jun-20 03:30N 47°29' W 003°49'5 9.2
2018-Jun-20 02:59N 47°32' W 003°44'4 9.4
2018-Jun-20 02:30N 47°35' W 003°39'6 9.3
2018-Jun-20 01:54N 47°39' W 003°33'4 9.2
2018-Jun-20 01:30N 47°40' W 003°28'5 9.4
2018-Jun-20 01:00N 47°42' W 003°22'1 2.7
2018-Jun-20 00:31N 47°44' W 003°22'1 2.5
2018-Jun-20 00:00N 47°42' W 003°22'4 8.7
2018-Jun-19 23:30N 47°38' W 003°22'4 8.6
2018-Jun-19 23:01N 47°34' W 003°24'4 8.8
2018-Jun-19 22:30N 47°30' W 003°27'5 8.9
2018-Jun-19 21:57N 47°26' W 003°30'5 8.8
2018-Jun-19 21:26N 47°22' W 003°33'9 6.2
2018-Jun-19 19:56N 47°13' W 003°39'2 3.7
2018-Jun-19 19:26N 47°11' W 003°39'2 3.9
2018-Jun-19 19:01N 47°10' W 003°38'2 2.6
2018-Jun-19 18:04N 47°08' W 003°41'1 3.8
2018-Jun-19 17:43N 47°07' W 003°42'1 4.2
2018-Jun-19 17:28N 47°06' W 003°42'2 4.4
2018-Jun-19 16:56N 47°04' W 003°44'1 3.4
2018-Jun-19 16:30N 47°03' W 003°44'2 4.2
2018-Jun-19 15:58N 47°01' W 003°44'2 3.9
2018-Jun-19 15:29N 46°59' W 003°44'3 3.5
2018-Jun-19 14:41N 46°58' W 003°40'1 4.2
2018-Jun-19 14:30N 46°58' W 003°39'3 4.0
2018-Jun-19 13:50N 46°56' W 003°36'3 0.9
2018-Jun-19 10:02N 46°55' W 003°31'0 4.0
2018-Jun-19 10:01N 46°55' W 003°31'1 0.9
2018-Jun-19 09:05N 46°56' W 003°30'1 4.1
2018-Jun-19 08:51N 46°56' W 003°32'2 3.6
2018-Jun-19 08:22N 46°54' W 003°33'2 3.2
2018-Jun-19 07:38N 46°54' W 003°29'4 3.5
2018-Jun-19 06:32N 46°56' W 003°24'0 3.8
2018-Jun-19 06:29N 46°56' W 003°24'2 3.2
2018-Jun-19 05:59N 46°56' W 003°22'5 1.2
2018-Jun-19 01:31N 46°56' W 003°29'1 3.6
2018-Jun-19 01:21N 46°56' W 003°30'5 3.3
2018-Jun-18 23:47N 46°54' W 003°38'2 2.0
2018-Jun-18 22:48N 46°56' W 003°37'2 4.2
2018-Jun-18 22:23N 46°57' W 003°34'22 2.0
2018-Jun-18 11:18N 47°17' W 003°47'5 2.2
2018-Jun-18 09:13N 47°19' W 003°53'1 3.1
2018-Jun-18 09:00N 47°19' W 003°52'2 3.3
2018-Jun-18 08:29N 47°18' W 003°51'2 3.4
2018-Jun-18 07:57N 47°16' W 003°50'2 3.5
2018-Jun-18 07:30N 47°14' W 003°52'15 3.4
2018-Jun-18 03:10N 47°29' W 003°49'2 8.2
2018-Jun-18 02:52N 47°31' W 003°47'3 8.3
2018-Jun-18 02:30N 47°33' W 003°43'4 8.5
2018-Jun-18 02:00N 47°36' W 003°38'4 8.4
2018-Jun-18 01:30N 47°38' W 003°34'4 8.2
2018-Jun-18 01:00N 47°40' W 003°28'4 8.6
2018-Jun-18 00:30N 47°42' W 003°22'2 3.8
2018-Jun-18 00:00N 47°44' W 003°22'0 0.0
2018-Jun-17 16:28N 47°44' W 003°22'0 0.7
2018-Jun-17 16:00N 47°44' W 003°22'0 0.0
2018-Jun-17 15:30N 47°44' W 003°22'0 0.0
2018-Jun-17 15:00N 47°44' W 003°22'0 0.0
2018-Jun-17 14:30N 47°44' W 003°22'0 0.0
2018-Jun-17 14:00N 47°44' W 003°22'0 0.0
2018-Jun-17 13:30N 47°44' W 003°22'0 0.0
2018-Jun-17 13:00N 47°44' W 003°22'0 0.0
2018-Jun-17 12:30N 47°44' W 003°22'0 0.0
2018-Jun-17 12:00N 47°44' W 003°22'0 0.0
2018-Jun-17 11:30N 47°44' W 003°22'0 0.0
2018-Jun-17 11:00N 47°44' W 003°22'0 0.0
2018-Jun-17 10:30N 47°44' W 003°22'0 0.0
2018-Jun-17 10:00N 47°44' W 003°22'0 0.0
2018-Jun-17 09:30N 47°44' W 003°22'0 0.0
2018-Jun-17 09:00N 47°44' W 003°22'0 0.0
2018-Jun-17 08:30N 47°44' W 003°22'0 0.0
2018-Jun-16 02:56N 47°44' W 003°22'0 0.0
2018-Jun-16 02:30N 47°44' W 003°22'0 0.5
2018-Jun-16 02:01N 47°44' W 003°22'0 0.0
2018-Jun-16 01:30N 47°44' W 003°22'0 0.0
2018-Jun-16 01:00N 47°44' W 003°22'2 3.9
2018-Jun-16 00:30N 47°42' W 003°23'5 9.1
2018-Jun-16 00:00N 47°40' W 003°29'4 8.7
2018-Jun-15 23:30N 47°38' W 003°35'4 8.5
2018-Jun-15 23:00N 47°35' W 003°39'4 8.5
2018-Jun-15 22:31N 47°33' W 003°44'5 8.4
2018-Jun-15 21:55N 47°29' W 003°49'18 1.3
2018-Jun-15 07:49N 47°12' W 003°56'19 4.1
2018-Jun-15 03:15N 47°27' W 003°39'3 9.0
2018-Jun-15 02:58N 47°29' W 003°36'4 8.8
2018-Jun-15 02:30N 47°31' W 003°31'4 8.6
2018-Jun-15 02:00N 47°34' W 003°27'4 8.3
2018-Jun-15 01:30N 47°37' W 003°23'4 8.9
2018-Jun-15 01:01N 47°42' W 003°22'2 3.9
2018-Jun-15 00:31N 47°44' W 003°22'0 0.2
2018-Jun-15 00:01N 47°44' W 003°22'1 2.5
2018-Jun-14 23:30N 47°42' W 003°22'4 9.0
2018-Jun-14 23:00N 47°38' W 003°22'4 8.6
2018-Jun-14 22:31N 47°34' W 003°24'4 8.6
2018-Jun-14 22:00N 47°30' W 003°27'4 8.5
2018-Jun-14 21:31N 47°26' W 003°30'4 8.6
2018-Jun-14 21:00N 47°22' W 003°33'3 5.2
2018-Jun-14 20:28N 47°20' W 003°35'2 3.3
2018-Jun-14 19:58N 47°20' W 003°38'10 2.6
2018-Jun-14 16:09N 47°14' W 003°49'1 3.5
2018-Jun-14 15:47N 47°13' W 003°48'8 1.1
2018-Jun-14 07:58N 47°07' W 003°38'4 1.3
2018-Jun-14 05:09N 47°10' W 003°43'4 2.4
2018-Jun-14 03:24N 47°14' W 003°45'3 4.3
2018-Jun-14 02:42N 47°14' W 003°49'0 1.5
2018-Jun-14 02:25N 47°14' W 003°49'1 0.4
2018-Jun-14 01:00N 47°14' W 003°49'1 2.3
2018-Jun-14 00:30N 47°14' W 003°48'7 2.0
2018-Jun-13 21:03N 47°19' W 003°40'0 3.8
2018-Jun-13 21:00N 47°19' W 003°40'2 2.4
2018-Jun-13 20:18N 47°20' W 003°38'1 3.5
2018-Jun-13 19:58N 47°19' W 003°39'10 1.9
2018-Jun-13 14:54N 47°09' W 003°42'2 3.5
2018-Jun-13 14:23N 47°08' W 003°40'2 4.0
2018-Jun-13 13:58N 47°07' W 003°38'3 1.6
2018-Jun-13 11:59N 47°10' W 003°41'2 3.8
2018-Jun-13 11:30N 47°10' W 003°39'1 0.3
2018-Jun-13 09:53N 47°10' W 003°39'2 3.9
2018-Jun-13 09:26N 47°09' W 003°37'2 0.5
2018-Jun-13 06:16N 47°08' W 003°39'10 3.9
2018-Jun-13 03:35N 47°19' W 003°37'1 8.8
2018-Jun-13 03:27N 47°20' W 003°36'4 8.7
2018-Jun-13 03:00N 47°23' W 003°33'4 8.7
2018-Jun-13 02:30N 47°27' W 003°30'4 8.7
2018-Jun-13 02:01N 47°31' W 003°27'4 8.8
2018-Jun-13 01:30N 47°34' W 003°23'4 8.5
2018-Jun-13 01:00N 47°39' W 003°22'4 8.6
2018-Jun-13 00:30N 47°43' W 003°22'1 1.5
2018-Jun-13 00:00N 47°44' W 003°22'1 2.7
2018-Jun-12 23:30N 47°42' W 003°22'5 9.3
2018-Jun-12 23:00N 47°38' W 003°22'5 9.3
2018-Jun-12 22:31N 47°33' W 003°24'5 9.4
2018-Jun-12 22:00N 47°29' W 003°27'5 9.1
2018-Jun-12 21:31N 47°25' W 003°30'4 8.7
2018-Jun-12 21:00N 47°21' W 003°33'  
Track history (hours):
 
Tides and Currents Weather Stations Pressure Air Temp Water Temp Dewpoint Dewpoint Depression Visibility Wind Speed Wind Dir Waves Ship Positions

F/V Men Gwen

Last reported at 2018-Jun-22 01:50 UTC. Time now 2018-Jun-23 00:47 UTC.
Position N 47°44' W 003°22'.

Length 18 m.

Type: Fishing. MMSI: 227481000.

Date/timePositionNaut miles runAvg speedWind from/ knotsBaromVisibWave heightAir tempDewpointWater temp
2018-Jun-22 01:50N 47°44' W 003°22'0 0.0
2018-Jun-22 01:30N 47°44' W 003°22'0 0.0
2018-Jun-22 01:00N 47°44' W 003°22'0 0.2
2018-Jun-22 00:30N 47°44' W 003°22'2 4.8
2018-Jun-22 00:00N 47°41' W 003°22'4 8.9
2018-Jun-21 23:30N 47°37' W 003°23'4 8.1
2018-Jun-21 23:00N 47°33' W 003°26'5 9.0
2018-Jun-21 22:30N 47°30' W 003°30'4 8.6
2018-Jun-21 22:00N 47°27' W 003°35'4 7.3
2018-Jun-21 21:30N 47°24' W 003°39'1 1.5
2018-Jun-21 21:00N 47°24' W 003°39'2 3.6
2018-Jun-21 20:29N 47°24' W 003°42'3 3.8
2018-Jun-21 19:44N 47°26' W 003°45'1 3.6
2018-Jun-21 19:30N 47°26' W 003°46'5 0.5
2018-Jun-21 09:22N 47°24' W 003°54'1 3.5
2018-Jun-21 08:58N 47°23' W 003°54'3 1.9
2018-Jun-21 07:26N 47°26' W 003°55'1 0.7
2018-Jun-21 06:37N 47°26' W 003°54'1 3.7
2018-Jun-21 06:23N 47°26' W 003°55'1 3.3
2018-Jun-21 05:59N 47°25' W 003°56'2 3.7
2018-Jun-21 05:20N 47°23' W 003°56'1 3.1
2018-Jun-21 04:59N 47°23' W 003°54'2 3.7
2018-Jun-21 04:28N 47°25' W 003°54'3 3.7
2018-Jun-21 03:37N 47°27' W 003°51'2 3.4
2018-Jun-21 03:08N 47°29' W 003°52'1 3.8
2018-Jun-21 02:53N 47°28' W 003°53'2 3.2
2018-Jun-21 02:15N 47°27' W 003°56'2 3.7
2018-Jun-21 01:49N 47°27' W 003°58'2 3.7
2018-Jun-21 01:12N 47°26' W 004°01'1 3.8
2018-Jun-21 00:59N 47°26' W 004°03'2 4.0
2018-Jun-21 00:30N 47°27' W 004°05'3 3.9
2018-Jun-20 23:49N 47°27' W 004°09'4 3.3
2018-Jun-20 22:35N 47°30' W 004°04'0 3.6
2018-Jun-20 22:30N 47°30' W 004°04'3 3.6
2018-Jun-20 21:37N 47°30' W 003°59'0 1.8
2018-Jun-20 21:27N 47°30' W 003°59'2 3.6
2018-Jun-20 20:56N 47°30' W 003°56'2 3.6
2018-Jun-20 20:29N 47°30' W 003°54'2 3.1
2018-Jun-20 19:57N 47°29' W 003°51'2 4.0
2018-Jun-20 19:30N 47°28' W 003°53'2 3.8
2018-Jun-20 19:00N 47°26' W 003°54'2 3.3
2018-Jun-20 18:17N 47°24' W 003°56'1 3.6
2018-Jun-20 18:00N 47°23' W 003°55'2 0.9
2018-Jun-20 15:54N 47°25' W 003°56'2 3.9
2018-Jun-20 15:30N 47°24' W 003°54'2 3.9
2018-Jun-20 14:59N 47°22' W 003°53'2 3.8
2018-Jun-20 14:28N 47°22' W 003°56'2 3.1
2018-Jun-20 13:59N 47°24' W 003°56'2 3.3
2018-Jun-20 13:26N 47°22' W 003°55'2 3.6
2018-Jun-20 12:57N 47°21' W 003°56'4 1.6
2018-Jun-20 10:33N 47°24' W 003°53'0 1.4
2018-Jun-20 10:25N 47°24' W 003°53'2 3.1
2018-Jun-20 09:53N 47°22' W 003°53'1 3.6
2018-Jun-20 09:30N 47°23' W 003°55'2 3.8
2018-Jun-20 08:57N 47°25' W 003°57'2 3.6
2018-Jun-20 08:30N 47°25' W 003°54'2 3.6
2018-Jun-20 08:00N 47°23' W 003°54'2 1.3
2018-Jun-20 06:45N 47°25' W 003°55'2 3.6
2018-Jun-20 06:11N 47°23' W 003°53'1 4.1
2018-Jun-20 06:00N 47°23' W 003°53'2 3.2
2018-Jun-20 05:27N 47°23' W 003°55'2 3.5
2018-Jun-20 04:50N 47°25' W 003°56'2 3.7
2018-Jun-20 04:12N 47°27' W 003°53'1 3.8
2018-Jun-20 03:58N 47°27' W 003°52'2 4.7
2018-Jun-20 03:30N 47°29' W 003°49'5 9.2
2018-Jun-20 02:59N 47°32' W 003°44'4 9.4
2018-Jun-20 02:30N 47°35' W 003°39'6 9.3
2018-Jun-20 01:54N 47°39' W 003°33'4 9.2
2018-Jun-20 01:30N 47°40' W 003°28'5 9.4
2018-Jun-20 01:00N 47°42' W 003°22'1 2.7
2018-Jun-20 00:31N 47°44' W 003°22'1 2.5
2018-Jun-20 00:00N 47°42' W 003°22'4 8.7
2018-Jun-19 23:30N 47°38' W 003°22'4 8.6
2018-Jun-19 23:01N 47°34' W 003°24'4 8.8
2018-Jun-19 22:30N 47°30' W 003°27'5 8.9
2018-Jun-19 21:57N 47°26' W 003°30'5 8.8
2018-Jun-19 21:26N 47°22' W 003°33'9 6.2
2018-Jun-19 19:56N 47°13' W 003°39'2 3.7
2018-Jun-19 19:26N 47°11' W 003°39'2 3.9
2018-Jun-19 19:01N 47°10' W 003°38'2 2.6
2018-Jun-19 18:04N 47°08' W 003°41'1 3.8
2018-Jun-19 17:43N 47°07' W 003°42'1 4.2
2018-Jun-19 17:28N 47°06' W 003°42'2 4.4
2018-Jun-19 16:56N 47°04' W 003°44'1 3.4
2018-Jun-19 16:30N 47°03' W 003°44'2 4.2
2018-Jun-19 15:58N 47°01' W 003°44'2 3.9
2018-Jun-19 15:29N 46°59' W 003°44'3 3.5
2018-Jun-19 14:41N 46°58' W 003°40'1 4.2
2018-Jun-19 14:30N 46°58' W 003°39'3 4.0
2018-Jun-19 13:50N 46°56' W 003°36'3 0.9
2018-Jun-19 10:02N 46°55' W 003°31'0 4.0
2018-Jun-19 10:01N 46°55' W 003°31'1 0.9
2018-Jun-19 09:05N 46°56' W 003°30'1 4.1
2018-Jun-19 08:51N 46°56' W 003°32'2 3.6
2018-Jun-19 08:22N 46°54' W 003°33'2 3.2
2018-Jun-19 07:38N 46°54' W 003°29'4 3.5
2018-Jun-19 06:32N 46°56' W 003°24'0 3.8
2018-Jun-19 06:29N 46°56' W 003°24'2 3.2
2018-Jun-19 05:59N 46°56' W 003°22'5 1.2
2018-Jun-19 01:31N 46°56' W 003°29'1 3.6
2018-Jun-19 01:21N 46°56' W 003°30'5 3.3
2018-Jun-18 23:47N 46°54' W 003°38'2 2.0
2018-Jun-18 22:48N 46°56' W 003°37'2 4.2
2018-Jun-18 22:23N 46°57' W 003°34'22 2.0
2018-Jun-18 11:18N 47°17' W 003°47'5 2.2
2018-Jun-18 09:13N 47°19' W 003°53'1 3.1
2018-Jun-18 09:00N 47°19' W 003°52'2 3.3
2018-Jun-18 08:29N 47°18' W 003°51'2 3.4
2018-Jun-18 07:57N 47°16' W 003°50'2 3.5
2018-Jun-18 07:30N 47°14' W 003°52'15 3.4
2018-Jun-18 03:10N 47°29' W 003°49'2 8.2
2018-Jun-18 02:52N 47°31' W 003°47'3 8.3
2018-Jun-18 02:30N 47°33' W 003°43'4 8.5
2018-Jun-18 02:00N 47°36' W 003°38'4 8.4
2018-Jun-18 01:30N 47°38' W 003°34'4 8.2
2018-Jun-18 01:00N 47°40' W 003°28'4 8.6
2018-Jun-18 00:30N 47°42' W 003°22'2 3.8
2018-Jun-18 00:00N 47°44' W 003°22'0 0.0
2018-Jun-17 16:28N 47°44' W 003°22'0 0.7
2018-Jun-17 16:00N 47°44' W 003°22'0 0.0
2018-Jun-17 15:30N 47°44' W 003°22'0 0.0
2018-Jun-17 15:00N 47°44' W 003°22'0 0.0
2018-Jun-17 14:30N 47°44' W 003°22'0 0.0
2018-Jun-17 14:00N 47°44' W 003°22'0 0.0
2018-Jun-17 13:30N 47°44' W 003°22'0 0.0
2018-Jun-17 13:00N 47°44' W 003°22'0 0.0
2018-Jun-17 12:30N 47°44' W 003°22'0 0.0
2018-Jun-17 12:00N 47°44' W 003°22'0 0.0
2018-Jun-17 11:30N 47°44' W 003°22'0 0.0
2018-Jun-17 11:00N 47°44' W 003°22'0 0.0
2018-Jun-17 10:30N 47°44' W 003°22'0 0.0
2018-Jun-17 10:00N 47°44' W 003°22'0 0.0
2018-Jun-17 09:30N 47°44' W 003°22'0 0.0
2018-Jun-17 09:00N 47°44' W 003°22'0 0.0
2018-Jun-17 08:30N 47°44' W 003°22'0 0.0
2018-Jun-16 02:56N 47°44' W 003°22'0 0.0
2018-Jun-16 02:30N 47°44' W 003°22'0 0.5
2018-Jun-16 02:01N 47°44' W 003°22'0 0.0
2018-Jun-16 01:30N 47°44' W 003°22'0 0.0
2018-Jun-16 01:00N 47°44' W 003°22'2 3.9
2018-Jun-16 00:30N 47°42' W 003°23'5 9.1
2018-Jun-16 00:00N 47°40' W 003°29'4 8.7
2018-Jun-15 23:30N 47°38' W 003°35'4 8.5
2018-Jun-15 23:00N 47°35' W 003°39'4 8.5
2018-Jun-15 22:31N 47°33' W 003°44'5 8.4
2018-Jun-15 21:55N 47°29' W 003°49'18 1.3
2018-Jun-15 07:49N 47°12' W 003°56'19 4.1
2018-Jun-15 03:15N 47°27' W 003°39'3 9.0
2018-Jun-15 02:58N 47°29' W 003°36'4 8.8
2018-Jun-15 02:30N 47°31' W 003°31'4 8.6
2018-Jun-15 02:00N 47°34' W 003°27'4 8.3
2018-Jun-15 01:30N 47°37' W 003°23'4 8.9
2018-Jun-15 01:01N 47°42' W 003°22'2 3.9
2018-Jun-15 00:31N 47°44' W 003°22'0 0.2
2018-Jun-15 00:01N 47°44' W 003°22'1 2.5
2018-Jun-14 23:30N 47°42' W 003°22'4 9.0
2018-Jun-14 23:00N 47°38' W 003°22'4 8.6
2018-Jun-14 22:31N 47°34' W 003°24'4 8.6
2018-Jun-14 22:00N 47°30' W 003°27'4 8.5
2018-Jun-14 21:31N 47°26' W 003°30'4 8.6
2018-Jun-14 21:00N 47°22' W 003°33'3 5.2
2018-Jun-14 20:28N 47°20' W 003°35'2 3.3
2018-Jun-14 19:58N 47°20' W 003°38'10 2.6
2018-Jun-14 16:09N 47°14' W 003°49'1 3.5
2018-Jun-14 15:47N 47°13' W 003°48'8 1.1
2018-Jun-14 07:58N 47°07' W 003°38'4 1.3
2018-Jun-14 05:09N 47°10' W 003°43'4 2.4
2018-Jun-14 03:24N 47°14' W 003°45'3 4.3
2018-Jun-14 02:42N 47°14' W 003°49'0 1.5
2018-Jun-14 02:25N 47°14' W 003°49'1 0.4
2018-Jun-14 01:00N 47°14' W 003°49'1 2.3
2018-Jun-14 00:30N 47°14' W 003°48'7 2.0
2018-Jun-13 21:03N 47°19' W 003°40'0 3.8
2018-Jun-13 21:00N 47°19' W 003°40'2 2.4
2018-Jun-13 20:18N 47°20' W 003°38'1 3.5
2018-Jun-13 19:58N 47°19' W 003°39'10 1.9
2018-Jun-13 14:54N 47°09' W 003°42'2 3.5
2018-Jun-13 14:23N 47°08' W 003°40'2 4.0
2018-Jun-13 13:58N 47°07' W 003°38'3 1.6
2018-Jun-13 11:59N 47°10' W 003°41'2 3.8
2018-Jun-13 11:30N 47°10' W 003°39'1 0.3
2018-Jun-13 09:53N 47°10' W 003°39'2 3.9
2018-Jun-13 09:26N 47°09' W 003°37'2 0.5
2018-Jun-13 06:16N 47°08' W 003°39'10 3.9
2018-Jun-13 03:35N 47°19' W 003°37'1 8.8
2018-Jun-13 03:27N 47°20' W 003°36'4 8.7
2018-Jun-13 03:00N 47°23' W 003°33'4 8.7
2018-Jun-13 02:30N 47°27' W 003°30'4 8.7
2018-Jun-13 02:01N 47°31' W 003°27'4 8.8
2018-Jun-13 01:30N 47°34' W 003°23'4 8.5
2018-Jun-13 01:00N 47°39' W 003°22'4 8.6
2018-Jun-13 00:30N 47°43' W 003°22'1 1.5
2018-Jun-13 00:00N 47°44' W 003°22'1 2.7
2018-Jun-12 23:30N 47°42' W 003°22'5 9.3
2018-Jun-12 23:00N 47°38' W 003°22'5 9.3
2018-Jun-12 22:31N 47°33' W 003°24'5 9.4
2018-Jun-12 22:00N 47°29' W 003°27'5 9.1
2018-Jun-12 21:31N 47°25' W 003°30'4 8.7
2018-Jun-12 21:00N 47°21' W 003°33'  

Dump ship's entire track history